DLH2X EDDM-EDDB
Flight info
| Callsign | DLH2X |
|---|---|
| Flight time | 0h 48m |
| Altitude | 29000 |
| Route | AKINI1Q/08L AKINI Y104 MAMOR L132 RUDNO T203 TIVDA DCT ETVIS DCT NAVEK DCT GAVLI T203 ATGUP ATGUP1L |
| Aircraft | A320/M-SDE2E3FGIJ1LORWXYZ/HB1 |
Departure
| Time | 2026-05-04 11:31 |
|---|---|
| Airport | Munich Airport (EDDM) |
Arrival
| Time | 2026-05-04 12:19 |
|---|---|
| Airport | Berlin Brandenburg Airport (EDDB) |
| Time | Latitude | Longitude | Altitude | Speed | Heading |
|---|---|---|---|---|---|
| 2026-05-04 10:59 | 48.35744 | 11.79934 | 1486 ft | 0 kts | 263° |
| 2026-05-04 11:22 | 48.35720 | 11.80077 | 1485 ft | 4 kts | 353° |
| 2026-05-04 11:22 | 48.35713 | 11.80078 | 1485 ft | 0 kts | 353° |
| 2026-05-04 11:24 | 48.35771 | 11.80069 | 1485 ft | 13 kts | 354° |
| 2026-05-04 11:25 | 48.35824 | 11.79989 | 1476 ft | 11 kts | 275° |
| 2026-05-04 11:25 | 48.35819 | 11.79879 | 1485 ft | 10 kts | 264° |
| 2026-05-04 11:25 | 48.35810 | 11.79755 | 1485 ft | 13 kts | 264° |
| 2026-05-04 11:26 | 48.35846 | 11.79521 | 1472 ft | 19 kts | 351° |
| 2026-05-04 11:27 | 48.35999 | 11.78109 | 1475 ft | 22 kts | 262° |
| 2026-05-04 11:28 | 48.35981 | 11.77883 | 1485 ft | 20 kts | 264° |
| 2026-05-04 11:28 | 48.35980 | 11.77705 | 1474 ft | 15 kts | 294° |
| 2026-05-04 11:28 | 48.36075 | 11.77657 | 1480 ft | 16 kts | 360° |
| 2026-05-04 11:28 | 48.36165 | 11.77744 | 1469 ft | 17 kts | 49° |
| 2026-05-04 11:29 | 48.36245 | 11.77904 | 1485 ft | 20 kts | 54° |
| 2026-05-04 11:29 | 48.36338 | 11.78083 | 1472 ft | 23 kts | 52° |
| 2026-05-04 11:29 | 48.36397 | 11.78327 | 1480 ft | 34 kts | 83° |
| 2026-05-04 11:29 | 48.36457 | 11.79070 | 1485 ft | 106 kts | 83° |
| 2026-05-04 11:31 | 48.40026 | 11.89895 | 4607 ft | 239 kts | 33° |
| 2026-05-04 11:33 | 48.49859 | 12.03479 | 10138 ft | 304 kts | 11° |
| 2026-05-04 11:33 | 48.51964 | 12.03784 | 10938 ft | 306 kts | 358° |
| 2026-05-04 11:33 | 48.54105 | 12.03782 | 11772 ft | 310 kts | 358° |
| 2026-05-04 11:34 | 48.56277 | 12.03783 | 12599 ft | 314 kts | 358° |
| 2026-05-04 11:34 | 48.58479 | 12.03787 | 13410 ft | 319 kts | 358° |
| 2026-05-04 11:34 | 48.60713 | 12.03812 | 14177 ft | 323 kts | 1° |
| 2026-05-04 11:34 | 48.62953 | 12.04360 | 14884 ft | 330 kts | 14° |
| 2026-05-04 11:35 | 48.65102 | 12.05639 | 15617 ft | 334 kts | 24° |
| 2026-05-04 11:35 | 48.67227 | 12.07106 | 16351 ft | 338 kts | 23° |
| 2026-05-04 11:35 | 48.69377 | 12.08586 | 17082 ft | 341 kts | 23° |
| 2026-05-04 11:35 | 48.71549 | 12.10075 | 17804 ft | 344 kts | 23° |
| 2026-05-04 11:36 | 48.73743 | 12.11575 | 18489 ft | 348 kts | 23° |
| 2026-05-04 11:36 | 48.75962 | 12.13094 | 19021 ft | 355 kts | 23° |
| 2026-05-04 11:36 | 48.78263 | 12.14713 | 19155 ft | 374 kts | 24° |
| 2026-05-04 11:36 | 48.80677 | 12.16452 | 19284 ft | 393 kts | 24° |
| 2026-05-04 11:37 | 48.83169 | 12.18268 | 19635 ft | 402 kts | 25° |
| 2026-05-04 11:37 | 48.85706 | 12.20123 | 20157 ft | 407 kts | 25° |
| 2026-05-04 11:37 | 48.88268 | 12.21989 | 20712 ft | 410 kts | 24° |
| 2026-05-04 11:37 | 48.90854 | 12.23857 | 21263 ft | 413 kts | 24° |
| 2026-05-04 11:38 | 48.93469 | 12.25706 | 21813 ft | 416 kts | 24° |
| 2026-05-04 11:38 | 48.96109 | 12.27550 | 22362 ft | 419 kts | 24° |
| 2026-05-04 11:38 | 48.98769 | 12.29402 | 22890 ft | 422 kts | 24° |
| 2026-05-04 11:38 | 49.01447 | 12.31273 | 23426 ft | 425 kts | 24° |
| 2026-05-04 11:39 | 49.04139 | 12.33164 | 23882 ft | 428 kts | 24° |
| 2026-05-04 11:39 | 49.06848 | 12.35077 | 24304 ft | 430 kts | 24° |
| 2026-05-04 11:40 | 49.23420 | 12.46868 | 26782 ft | 445 kts | 23° |
| 2026-05-04 11:41 | 49.26235 | 12.48880 | 27173 ft | 448 kts | 23° |
| 2026-05-04 11:41 | 49.29066 | 12.50905 | 27580 ft | 450 kts | 23° |
| 2026-05-04 11:41 | 49.31911 | 12.52949 | 27970 ft | 453 kts | 24° |
| 2026-05-04 11:41 | 49.34656 | 12.55398 | 28342 ft | 460 kts | 33° |
| 2026-05-04 11:42 | 49.37227 | 12.58336 | 28785 ft | 461 kts | 36° |
| 2026-05-04 11:42 | 49.39788 | 12.61291 | 28982 ft | 460 kts | 35° |
| 2026-05-04 11:42 | 49.42318 | 12.64183 | 29013 ft | 448 kts | 33° |
| 2026-05-04 11:43 | 49.47718 | 12.68677 | 29010 ft | 440 kts | 23° |
| 2026-05-04 11:43 | 49.53240 | 12.72738 | 29010 ft | 440 kts | 23° |
| 2026-05-04 11:44 | 49.58763 | 12.76834 | 29008 ft | 441 kts | 23° |
| 2026-05-04 11:44 | 49.64316 | 12.80818 | 29004 ft | 439 kts | 18° |
| 2026-05-04 11:45 | 49.70226 | 12.82861 | 29002 ft | 435 kts | 5° |
| 2026-05-04 11:45 | 49.76214 | 12.84219 | 28993 ft | 435 kts | 5° |
| 2026-05-04 11:46 | 49.82207 | 12.85602 | 28997 ft | 436 kts | 5° |
| 2026-05-04 11:46 | 49.88202 | 12.87004 | 28998 ft | 435 kts | 5° |
| 2026-05-04 11:47 | 49.94193 | 12.88395 | 29013 ft | 435 kts | 5° |
| 2026-05-04 11:47 | 50.00180 | 12.89780 | 29010 ft | 435 kts | 5° |
| 2026-05-04 11:48 | 50.06175 | 12.91174 | 29013 ft | 436 kts | 5° |
| 2026-05-04 11:48 | 50.12168 | 12.92577 | 29017 ft | 435 kts | 5° |
| 2026-05-04 11:49 | 50.18164 | 12.93986 | 29021 ft | 436 kts | 5° |
| 2026-05-04 11:49 | 50.24160 | 12.95394 | 29019 ft | 436 kts | 5° |
| 2026-05-04 11:50 | 50.30072 | 12.97630 | 29013 ft | 442 kts | 20° |
| 2026-05-04 11:50 | 50.35603 | 13.01897 | 28998 ft | 444 kts | 24° |
| 2026-05-04 11:51 | 50.41112 | 13.06262 | 28993 ft | 443 kts | 24° |
| 2026-05-04 11:51 | 50.45682 | 13.09890 | 28987 ft | 443 kts | 24° |
| 2026-05-04 11:52 | 50.51179 | 13.14269 | 28976 ft | 443 kts | 24° |
| 2026-05-04 11:52 | 50.56671 | 13.18668 | 28975 ft | 443 kts | 24° |
| 2026-05-04 11:53 | 50.62166 | 13.23074 | 28979 ft | 443 kts | 24° |
| 2026-05-04 11:53 | 50.67658 | 13.27494 | 28972 ft | 443 kts | 24° |
| 2026-05-04 11:55 | 50.89614 | 13.45338 | 28981 ft | 444 kts | 24° |
| 2026-05-04 11:56 | 50.95298 | 13.48936 | 28981 ft | 437 kts | 9° |
| 2026-05-04 11:56 | 51.01269 | 13.50590 | 28978 ft | 436 kts | 6° |
| 2026-05-04 11:56 | 51.04266 | 13.51392 | 28526 ft | 436 kts | 6° |
| 2026-05-04 11:57 | 51.07250 | 13.52202 | 27893 ft | 433 kts | 6° |
| 2026-05-04 11:57 | 51.10206 | 13.53010 | 27330 ft | 429 kts | 6° |
| 2026-05-04 11:57 | 51.13136 | 13.53807 | 26755 ft | 426 kts | 6° |
| 2026-05-04 11:57 | 51.16038 | 13.54596 | 26204 ft | 422 kts | 6° |
| 2026-05-04 11:58 | 51.18925 | 13.55375 | 25659 ft | 419 kts | 6° |
| 2026-05-04 11:58 | 51.21783 | 13.56140 | 25126 ft | 414 kts | 6° |
| 2026-05-04 11:58 | 51.24623 | 13.56905 | 24607 ft | 412 kts | 6° |
| 2026-05-04 11:58 | 51.27444 | 13.57672 | 24098 ft | 411 kts | 6° |
| 2026-05-04 11:59 | 51.30256 | 13.58446 | 23609 ft | 409 kts | 6° |
| 2026-05-04 11:59 | 51.33050 | 13.59211 | 23082 ft | 405 kts | 6° |
| 2026-05-04 11:59 | 51.35806 | 13.59965 | 22611 ft | 400 kts | 6° |
| 2026-05-04 11:59 | 51.38533 | 13.60708 | 22153 ft | 395 kts | 6° |
| 2026-05-04 12:00 | 51.41233 | 13.61445 | 21698 ft | 391 kts | 6° |
| 2026-05-04 12:00 | 51.43902 | 13.62170 | 21235 ft | 388 kts | 6° |
| 2026-05-04 12:00 | 51.46554 | 13.62891 | 20767 ft | 385 kts | 6° |
| 2026-05-04 12:00 | 51.49188 | 13.63611 | 20300 ft | 383 kts | 6° |
| 2026-05-04 12:01 | 51.51806 | 13.64334 | 19815 ft | 381 kts | 7° |
| 2026-05-04 12:01 | 51.54417 | 13.65062 | 19319 ft | 380 kts | 7° |
| 2026-05-04 12:02 | 51.69784 | 13.70459 | 16354 ft | 371 kts | 11° |
| 2026-05-04 12:03 | 51.72292 | 13.71406 | 15885 ft | 369 kts | 10° |
| 2026-05-04 12:03 | 51.74791 | 13.72333 | 15413 ft | 368 kts | 10° |
| 2026-05-04 12:03 | 51.77283 | 13.73247 | 14935 ft | 366 kts | 10° |
| 2026-05-04 12:03 | 51.79758 | 13.74151 | 14457 ft | 365 kts | 10° |
| 2026-05-04 12:04 | 51.82231 | 13.75053 | 13998 ft | 364 kts | 10° |
| 2026-05-04 12:04 | 51.84703 | 13.75961 | 13490 ft | 364 kts | 10° |
| 2026-05-04 12:04 | 51.87166 | 13.76874 | 13003 ft | 362 kts | 11° |
| 2026-05-04 12:04 | 51.89614 | 13.77783 | 12513 ft | 360 kts | 11° |
| 2026-05-04 12:05 | 51.92049 | 13.78672 | 12027 ft | 357 kts | 8° |
| 2026-05-04 12:05 | 51.94489 | 13.79148 | 11790 ft | 350 kts | 3° |
| 2026-05-04 12:05 | 51.96900 | 13.79539 | 11668 ft | 347 kts | 3° |
| 2026-05-04 12:05 | 51.99297 | 13.79942 | 11504 ft | 346 kts | 3° |
| 2026-05-04 12:06 | 52.01685 | 13.80350 | 11337 ft | 344 kts | 3° |
| 2026-05-04 12:06 | 52.04068 | 13.80753 | 11177 ft | 344 kts | 3° |
| 2026-05-04 12:06 | 52.06446 | 13.81150 | 11013 ft | 343 kts | 2° |
| 2026-05-04 12:06 | 52.08815 | 13.81543 | 10854 ft | 342 kts | 3° |
| 2026-05-04 12:07 | 52.11179 | 13.81940 | 10693 ft | 341 kts | 3° |
| 2026-05-04 12:07 | 52.13534 | 13.82334 | 10533 ft | 340 kts | 2° |
| 2026-05-04 12:07 | 52.15876 | 13.82729 | 10376 ft | 333 kts | 3° |
| 2026-05-04 12:07 | 52.18136 | 13.83117 | 10254 ft | 321 kts | 2° |
| 2026-05-04 12:08 | 52.20316 | 13.83491 | 10126 ft | 310 kts | 2° |
| 2026-05-04 12:08 | 52.22433 | 13.83852 | 9912 ft | 303 kts | 2° |
| 2026-05-04 12:08 | 52.24495 | 13.84139 | 9767 ft | 290 kts | 355° |
| 2026-05-04 12:08 | 52.26449 | 13.83753 | 9516 ft | 279 kts | 340° |
| 2026-05-04 12:09 | 52.28257 | 13.82707 | 9149 ft | 275 kts | 334° |
| 2026-05-04 12:09 | 52.30045 | 13.81606 | 8801 ft | 275 kts | 339° |
| 2026-05-04 12:09 | 52.31961 | 13.81421 | 8457 ft | 281 kts | 9° |
| 2026-05-04 12:09 | 52.33699 | 13.82853 | 8108 ft | 285 kts | 42° |
| 2026-05-04 12:10 | 52.34782 | 13.85540 | 7725 ft | 286 kts | 68° |
| 2026-05-04 12:10 | 52.35502 | 13.88565 | 7330 ft | 286 kts | 69° |
| 2026-05-04 12:10 | 52.36202 | 13.91593 | 6960 ft | 283 kts | 70° |
| 2026-05-04 12:10 | 52.36882 | 13.94588 | 6382 ft | 279 kts | 70° |
| 2026-05-04 12:11 | 52.37561 | 13.97564 | 5895 ft | 279 kts | 69° |
| 2026-05-04 12:11 | 52.38238 | 14.00509 | 5534 ft | 275 kts | 69° |
| 2026-05-04 12:11 | 52.39188 | 14.03173 | 5128 ft | 271 kts | 43° |
| 2026-05-04 12:11 | 52.40768 | 14.04722 | 4741 ft | 264 kts | 12° |
| 2026-05-04 12:12 | 52.42556 | 14.04847 | 4347 ft | 255 kts | 345° |
| 2026-05-04 12:12 | 52.44169 | 14.03796 | 4035 ft | 245 kts | 321° |
| 2026-05-04 12:12 | 52.45329 | 14.01938 | 4003 ft | 223 kts | 301° |
| 2026-05-04 12:12 | 52.45979 | 13.99700 | 4010 ft | 218 kts | 283° |
| 2026-05-04 12:13 | 52.46140 | 13.97236 | 4014 ft | 218 kts | 264° |
| 2026-05-04 12:14 | 52.42523 | 13.80764 | 3750 ft | 215 kts | 249° |
| 2026-05-04 12:15 | 52.41992 | 13.78492 | 3474 ft | 210 kts | 249° |
| 2026-05-04 12:15 | 52.41485 | 13.76323 | 3206 ft | 198 kts | 249° |
| 2026-05-04 12:15 | 52.41011 | 13.74294 | 2976 ft | 183 kts | 249° |
| 2026-05-04 12:15 | 52.40571 | 13.72415 | 2732 ft | 171 kts | 249° |
| 2026-05-04 12:16 | 52.40156 | 13.70651 | 2504 ft | 161 kts | 248° |
| 2026-05-04 12:16 | 52.39768 | 13.68997 | 2320 ft | 150 kts | 249° |
| 2026-05-04 12:16 | 52.39409 | 13.67467 | 2125 ft | 139 kts | 249° |
| 2026-05-04 12:16 | 52.39071 | 13.66025 | 1933 ft | 134 kts | 249° |
| 2026-05-04 12:17 | 52.38741 | 13.64619 | 1746 ft | 131 kts | 249° |
| 2026-05-04 12:17 | 52.38415 | 13.63232 | 1571 ft | 130 kts | 249° |
| 2026-05-04 12:17 | 52.38093 | 13.61867 | 1410 ft | 129 kts | 249° |
| 2026-05-04 12:17 | 52.37770 | 13.60497 | 1243 ft | 129 kts | 249° |
| 2026-05-04 12:18 | 52.37441 | 13.59117 | 1073 ft | 131 kts | 251° |
| 2026-05-04 12:18 | 52.37108 | 13.57719 | 876 ft | 135 kts | 249° |
| 2026-05-04 12:18 | 52.36795 | 13.56300 | 695 ft | 127 kts | 252° |
| 2026-05-04 12:18 | 52.36474 | 13.54877 | 515 ft | 136 kts | 249° |
| 2026-05-04 12:19 | 52.36128 | 13.53484 | 360 ft | 128 kts | 248° |
| 2026-05-04 12:19 | 52.35795 | 13.52123 | 183 ft | 128 kts | 250° |
| 2026-05-04 12:19 | 52.35527 | 13.50989 | 155 ft | 71 kts | 249° |
| 2026-05-04 12:19 | 52.35403 | 13.50460 | 154 ft | 43 kts | 249° |
| 2026-05-04 12:20 | 52.35305 | 13.50044 | 154 ft | 36 kts | 249° |
| 2026-05-04 12:20 | 52.35233 | 13.49669 | 154 ft | 34 kts | 265° |
| 2026-05-04 12:20 | 52.35250 | 13.49318 | 154 ft | 27 kts | 288° |
| 2026-05-04 12:20 | 52.35398 | 13.49186 | 154 ft | 23 kts | 7° |
| 2026-05-04 12:21 | 52.35480 | 13.49390 | 154 ft | 22 kts | 70° |
| 2026-05-04 12:21 | 52.35533 | 13.49615 | 154 ft | 20 kts | 68° |
| 2026-05-04 12:21 | 52.35585 | 13.49823 | 154 ft | 19 kts | 68° |
| 2026-05-04 12:21 | 52.35630 | 13.50020 | 154 ft | 18 kts | 71° |
| 2026-05-04 12:22 | 52.35679 | 13.50224 | 154 ft | 20 kts | 66° |
| 2026-05-04 12:22 | 52.35729 | 13.50425 | 155 ft | 19 kts | 69° |
| 2026-05-04 12:22 | 52.35776 | 13.50613 | 155 ft | 17 kts | 47° |
| 2026-05-04 12:22 | 52.35883 | 13.50645 | 155 ft | 15 kts | 6° |
| 2026-05-04 12:23 | 52.35979 | 13.50615 | 155 ft | 14 kts | 339° |
| 2026-05-04 12:23 | 52.36083 | 13.50549 | 155 ft | 21 kts | 338° |
| 2026-05-04 12:23 | 52.36227 | 13.50454 | 155 ft | 21 kts | 339° |
| 2026-05-04 12:23 | 52.36349 | 13.50378 | 155 ft | 18 kts | 339° |
| 2026-05-04 12:24 | 52.36463 | 13.50311 | 155 ft | 15 kts | 348° |
| 2026-05-04 12:24 | 52.36523 | 13.50421 | 155 ft | 14 kts | 69° |
| 2026-05-04 12:24 | 52.36541 | 13.50495 | 155 ft | 0 kts | 69° |